sensor_id;sensor_type;location;lat;lon;timestamp;temperature;humidity
53254;DHT22;39148;53.332;6.922;2023-06-04T00:00:44;18.40;81.60
53254;DHT22;39148;53.332;6.922;2023-06-04T00:03:09;18.40;81.70
53254;DHT22;39148;53.332;6.922;2023-06-04T00:05:35;18.40;81.60
53254;DHT22;39148;53.332;6.922;2023-06-04T00:08:01;18.30;81.70
53254;DHT22;39148;53.332;6.922;2023-06-04T00:10:27;18.20;81.60
53254;DHT22;39148;53.332;6.922;2023-06-04T00:12:52;18.20;81.60
53254;DHT22;39148;53.332;6.922;2023-06-04T00:15:18;18.40;81.70
53254;DHT22;39148;53.332;6.922;2023-06-04T00:17:44;18.30;81.70
53254;DHT22;39148;53.332;6.922;2023-06-04T00:20:10;18.20;81.70
53254;DHT22;39148;53.332;6.922;2023-06-04T00:22:37;18.30;81.70
53254;DHT22;39148;53.332;6.922;2023-06-04T00:25:03;18.20;81.80
53254;DHT22;39148;53.332;6.922;2023-06-04T00:27:29;18.20;81.60
53254;DHT22;39148;53.332;6.922;2023-06-04T00:29:55;18.30;81.90
53254;DHT22;39148;53.332;6.922;2023-06-04T00:32:21;18.30;81.80
53254;DHT22;39148;53.332;6.922;2023-06-04T00:34:54;18.20;81.90
53254;DHT22;39148;53.332;6.922;2023-06-04T00:37:22;18.20;82.20
53254;DHT22;39148;53.332;6.922;2023-06-04T00:39:48;18.20;82.00
53254;DHT22;39148;53.332;6.922;2023-06-04T00:42:14;18.10;81.90
53254;DHT22;39148;53.332;6.922;2023-06-04T00:44:40;18.10;82.00
53254;DHT22;39148;53.332;6.922;2023-06-04T00:47:14;18.10;81.00
53254;DHT22;39148;53.332;6.922;2023-06-04T00:49:40;18.10;82.20
53254;DHT22;39148;53.332;6.922;2023-06-04T00:52:12;18.10;82.10
53254;DHT22;39148;53.332;6.922;2023-06-04T00:54:39;18.00;80.80
53254;DHT22;39148;53.332;6.922;2023-06-04T00:57:06;18.10;82.00
53254;DHT22;39148;53.332;6.922;2023-06-04T00:59:36;18.10;82.00
53254;DHT22;39148;53.332;6.922;2023-06-04T01:02:18;18.00;82.10
53254;DHT22;39148;53.332;6.922;2023-06-04T01:05:02;18.00;82.40
53254;DHT22;39148;53.332;6.922;2023-06-04T01:07:30;18.00;81.00
53254;DHT22;39148;53.332;6.922;2023-06-04T01:09:56;17.90;82.10
53254;DHT22;39148;53.332;6.922;2023-06-04T01:12:22;18.00;82.20
53254;DHT22;39148;53.332;6.922;2023-06-04T01:14:48;18.00;82.00
53254;DHT22;39148;53.332;6.922;2023-06-04T01:25:37;17.90;82.30
53254;DHT22;39148;53.332;6.922;2023-06-04T01:28:12;17.80;81.20
53254;DHT22;39148;53.332;6.922;2023-06-04T01:30:44;17.90;82.40
53254;DHT22;39148;53.332;6.922;2023-06-04T01:33:16;17.90;82.50
53254;DHT22;39148;53.332;6.922;2023-06-04T01:35:42;17.90;82.50
53254;DHT22;39148;53.332;6.922;2023-06-04T01:38:09;17.80;82.20
53254;DHT22;39148;53.332;6.922;2023-06-04T01:40:35;17.70;82.30
53254;DHT22;39148;53.332;6.922;2023-06-04T01:43:02;17.70;82.30
53254;DHT22;39148;53.332;6.922;2023-06-04T01:45:28;17.80;82.40
53254;DHT22;39148;53.332;6.922;2023-06-04T01:47:55;17.80;82.40
53254;DHT22;39148;53.332;6.922;2023-06-04T01:50:22;17.80;82.40
53254;DHT22;39148;53.332;6.922;2023-06-04T01:52:48;17.70;82.30
53254;DHT22;39148;53.332;6.922;2023-06-04T01:55:15;17.60;82.20
53254;DHT22;39148;53.332;6.922;2023-06-04T01:57:42;17.60;82.40
53254;DHT22;39148;53.332;6.922;2023-06-04T02:00:10;17.60;82.40
53254;DHT22;39148;53.332;6.922;2023-06-04T02:02:37;17.60;82.00
53254;DHT22;39148;53.332;6.922;2023-06-04T02:05:04;17.70;82.40
53254;DHT22;39148;53.332;6.922;2023-06-04T02:07:44;17.60;82.20
53254;DHT22;39148;53.332;6.922;2023-06-04T02:10:19;17.70;82.70
53254;DHT22;39148;53.332;6.922;2023-06-04T02:12:57;17.70;82.80
53254;DHT22;39148;53.332;6.922;2023-06-04T02:15:24;17.50;82.70
53254;DHT22;39148;53.332;6.922;2023-06-04T02:17:53;17.50;82.50
53254;DHT22;39148;53.332;6.922;2023-06-04T02:20:20;17.60;82.50
53254;DHT22;39148;53.332;6.922;2023-06-04T02:22:46;17.60;82.40
53254;DHT22;39148;53.332;6.922;2023-06-04T02:25:13;17.50;82.50
53254;DHT22;39148;53.332;6.922;2023-06-04T02:27:38;17.60;82.50
53254;DHT22;39148;53.332;6.922;2023-06-04T02:30:05;17.40;82.50
53254;DHT22;39148;53.332;6.922;2023-06-04T02:32:31;17.50;82.10
53254;DHT22;39148;53.332;6.922;2023-06-04T02:34:59;17.40;82.60
53254;DHT22;39148;53.332;6.922;2023-06-04T02:37:24;17.40;82.50
53254;DHT22;39148;53.332;6.922;2023-06-04T02:39:50;17.40;82.50
53254;DHT22;39148;53.332;6.922;2023-06-04T02:42:16;17.40;82.50
53254;DHT22;39148;53.332;6.922;2023-06-04T02:44:41;17.30;82.50
53254;DHT22;39148;53.332;6.922;2023-06-04T02:47:07;17.30;83.00
53254;DHT22;39148;53.332;6.922;2023-06-04T02:49:33;17.30;82.30
53254;DHT22;39148;53.332;6.922;2023-06-04T02:51:59;17.40;82.60
53254;DHT22;39148;53.332;6.922;2023-06-04T02:54:24;17.30;82.60
53254;DHT22;39148;53.332;6.922;2023-06-04T02:56:50;17.30;82.60
53254;DHT22;39148;53.332;6.922;2023-06-04T02:59:16;17.30;82.60
53254;DHT22;39148;53.332;6.922;2023-06-04T03:01:43;17.20;82.60
53254;DHT22;39148;53.332;6.922;2023-06-04T03:04:09;17.20;82.70
53254;DHT22;39148;53.332;6.922;2023-06-04T03:06:36;17.30;84.60
53254;DHT22;39148;53.332;6.922;2023-06-04T03:09:05;17.30;82.80
53254;DHT22;39148;53.332;6.922;2023-06-04T03:11:30;17.10;82.60
53254;DHT22;39148;53.332;6.922;2023-06-04T03:13:56;17.20;82.80
53254;DHT22;39148;53.332;6.922;2023-06-04T03:16:22;17.10;84.50
53254;DHT22;39148;53.332;6.922;2023-06-04T03:18:47;17.10;84.50
53254;DHT22;39148;53.332;6.922;2023-06-04T03:21:13;17.10;84.40
53254;DHT22;39148;53.332;6.922;2023-06-04T03:23:40;17.10;82.40
53254;DHT22;39148;53.332;6.922;2023-06-04T03:26:06;17.00;84.50
53254;DHT22;39148;53.332;6.922;2023-06-04T03:28:32;17.10;84.50
53254;DHT22;39148;53.332;6.922;2023-06-04T03:30:58;17.10;84.50
53254;DHT22;39148;53.332;6.922;2023-06-04T03:33:25;17.00;84.50
53254;DHT22;39148;53.332;6.922;2023-06-04T03:35:51;17.10;84.50
53254;DHT22;39148;53.332;6.922;2023-06-04T03:38:20;17.00;84.60
53254;DHT22;39148;53.332;6.922;2023-06-04T03:40:46;17.10;84.60
53254;DHT22;39148;53.332;6.922;2023-06-04T03:43:14;17.10;83.00
53254;DHT22;39148;53.332;6.922;2023-06-04T03:45:41;17.10;84.70
53254;DHT22;39148;53.332;6.922;2023-06-04T03:48:07;16.90;84.70
53254;DHT22;39148;53.332;6.922;2023-06-04T03:50:33;17.00;84.70
53254;DHT22;39148;53.332;6.922;2023-06-04T04:00:18;17.00;84.80
53254;DHT22;39148;53.332;6.922;2023-06-04T04:05:11;16.80;84.80
53254;DHT22;39148;53.332;6.922;2023-06-04T04:07:37;17.00;84.80
53254;DHT22;39148;53.332;6.922;2023-06-04T04:10:03;16.90;83.10
53254;DHT22;39148;53.332;6.922;2023-06-04T04:12:31;16.80;84.80
53254;DHT22;39148;53.332;6.922;2023-06-04T04:14:56;16.80;83.10
53254;DHT22;39148;53.332;6.922;2023-06-04T04:17:22;17.00;85.00
53254;DHT22;39148;53.332;6.922;2023-06-04T04:22:14;16.80;84.90
53254;DHT22;39148;53.332;6.922;2023-06-04T04:24:43;16.70;84.80
53254;DHT22;39148;53.332;6.922;2023-06-04T04:27:09;16.80;84.90
53254;DHT22;39148;53.332;6.922;2023-06-04T04:29:41;16.80;85.00
53254;DHT22;39148;53.332;6.922;2023-06-04T04:32:12;16.80;85.00
53254;DHT22;39148;53.332;6.922;2023-06-04T04:37:05;16.70;82.90
53254;DHT22;39148;53.332;6.922;2023-06-04T04:39:34;16.80;85.00
53254;DHT22;39148;53.332;6.922;2023-06-04T04:42:00;16.80;83.50
53254;DHT22;39148;53.332;6.922;2023-06-04T04:44:26;16.80;85.00
53254;DHT22;39148;53.332;6.922;2023-06-04T04:46:51;16.70;83.40
53254;DHT22;39148;53.332;6.922;2023-06-04T04:49:17;16.70;85.10
53254;DHT22;39148;53.332;6.922;2023-06-04T04:51:43;16.70;85.10
53254;DHT22;39148;53.332;6.922;2023-06-04T04:54:08;16.70;85.00
53254;DHT22;39148;53.332;6.922;2023-06-04T04:56:34;16.80;85.20
53254;DHT22;39148;53.332;6.922;2023-06-04T04:59:01;16.60;82.30
53254;DHT22;39148;53.332;6.922;2023-06-04T05:03:53;16.70;85.10
53254;DHT22;39148;53.332;6.922;2023-06-04T05:06:19;16.70;85.20
53254;DHT22;39148;53.332;6.922;2023-06-04T05:08:45;16.70;83.30
53254;DHT22;39148;53.332;6.922;2023-06-04T05:11:11;16.60;85.10
53254;DHT22;39148;53.332;6.922;2023-06-04T05:13:36;16.80;85.40
53254;DHT22;39148;53.332;6.922;2023-06-04T05:16:03;16.60;85.20
53254;DHT22;39148;53.332;6.922;2023-06-04T05:18:41;16.70;85.20
53254;DHT22;39148;53.332;6.922;2023-06-04T05:21:10;16.60;85.10
53254;DHT22;39148;53.332;6.922;2023-06-04T05:23:38;16.50;84.10
53254;DHT22;39148;53.332;6.922;2023-06-04T05:26:04;16.70;85.20
53254;DHT22;39148;53.332;6.922;2023-06-04T05:28:30;16.70;82.90
53254;DHT22;39148;53.332;6.922;2023-06-04T05:30:58;16.70;85.20
53254;DHT22;39148;53.332;6.922;2023-06-04T05:33:27;16.50;85.10
53254;DHT22;39148;53.332;6.922;2023-06-04T05:35:53;16.60;83.80
53254;DHT22;39148;53.332;6.922;2023-06-04T05:38:20;16.60;85.20
53254;DHT22;39148;53.332;6.922;2023-06-04T05:40:46;16.60;83.10
53254;DHT22;39148;53.332;6.922;2023-06-04T05:43:13;16.60;85.10
53254;DHT22;39148;53.332;6.922;2023-06-04T05:45:38;16.80;83.60
53254;DHT22;39148;53.332;6.922;2023-06-04T05:48:04;18.50;84.00
53254;DHT22;39148;53.332;6.922;2023-06-04T05:50:32;16.70;85.20
53254;DHT22;39148;53.332;6.922;2023-06-04T05:52:57;16.70;85.20
53254;DHT22;39148;53.332;6.922;2023-06-04T05:55:23;16.80;85.30
53254;DHT22;39148;53.332;6.922;2023-06-04T05:57:49;16.70;85.20
53254;DHT22;39148;53.332;6.922;2023-06-04T06:00:17;16.50;85.10
53254;DHT22;39148;53.332;6.922;2023-06-04T06:02:43;16.70;85.20
53254;DHT22;39148;53.332;6.922;2023-06-04T06:05:10;16.50;85.20
53254;DHT22;39148;53.332;6.922;2023-06-04T06:07:36;16.70;85.20
53254;DHT22;39148;53.332;6.922;2023-06-04T06:10:03;16.70;85.20
53254;DHT22;39148;53.332;6.922;2023-06-04T06:12:29;16.70;83.40
53254;DHT22;39148;53.332;6.922;2023-06-04T06:14:55;16.50;85.10
53254;DHT22;39148;53.332;6.922;2023-06-04T06:19:46;16.70;85.20
53254;DHT22;39148;53.332;6.922;2023-06-04T06:22:12;16.60;85.10
53254;DHT22;39148;53.332;6.922;2023-06-04T06:24:39;16.60;85.10
53254;DHT22;39148;53.332;6.922;2023-06-04T06:27:05;16.70;85.20
53254;DHT22;39148;53.332;6.922;2023-06-04T06:29:31;16.60;85.10
53254;DHT22;39148;53.332;6.922;2023-06-04T06:36:49;16.70;85.20
53254;DHT22;39148;53.332;6.922;2023-06-04T06:39:15;16.70;83.50
53254;DHT22;39148;53.332;6.922;2023-06-04T06:41:41;16.70;85.10
53254;DHT22;39148;53.332;6.922;2023-06-04T06:44:07;16.80;85.60
53254;DHT22;39148;53.332;6.922;2023-06-04T06:48:59;16.80;85.20
53254;DHT22;39148;53.332;6.922;2023-06-04T06:51:25;16.70;84.50
53254;DHT22;39148;53.332;6.922;2023-06-04T06:53:50;16.80;85.10
53254;DHT22;39148;53.332;6.922;2023-06-04T06:56:17;16.80;85.20
53254;DHT22;39148;53.332;6.922;2023-06-04T06:58:46;16.70;85.10
53254;DHT22;39148;53.332;6.922;2023-06-04T07:01:12;16.80;85.10
53254;DHT22;39148;53.332;6.922;2023-06-04T07:03:38;16.70;85.20
53254;DHT22;39148;53.332;6.922;2023-06-04T07:06:08;16.80;83.50
53254;DHT22;39148;53.332;6.922;2023-06-04T07:08:34;16.90;85.20
53254;DHT22;39148;53.332;6.922;2023-06-04T07:11:02;16.90;83.60
53254;DHT22;39148;53.332;6.922;2023-06-04T07:13:28;17.00;85.20
53254;DHT22;39148;53.332;6.922;2023-06-04T07:15:53;16.90;85.60
53254;DHT22;39148;53.332;6.922;2023-06-04T07:20:45;16.70;85.00
53254;DHT22;39148;53.332;6.922;2023-06-04T07:23:11;16.90;85.30
53254;DHT22;39148;53.332;6.922;2023-06-04T07:25:37;16.90;85.10
53254;DHT22;39148;53.332;6.922;2023-06-04T07:28:03;17.00;85.20
53254;DHT22;39148;53.332;6.922;2023-06-04T07:30:30;17.00;85.10
53254;DHT22;39148;53.332;6.922;2023-06-04T07:32:59;17.10;83.60
53254;DHT22;39148;53.332;6.922;2023-06-04T07:35:25;17.00;85.30
53254;DHT22;39148;53.332;6.922;2023-06-04T07:37:51;17.10;83.50
53254;DHT22;39148;53.332;6.922;2023-06-04T07:42:45;17.00;85.30
53254;DHT22;39148;53.332;6.922;2023-06-04T07:45:11;17.10;85.10
53254;DHT22;39148;53.332;6.922;2023-06-04T07:47:36;17.00;85.20
53254;DHT22;39148;53.332;6.922;2023-06-04T07:50:03;17.10;85.00
53254;DHT22;39148;53.332;6.922;2023-06-04T07:52:29;17.10;85.10
53254;DHT22;39148;53.332;6.922;2023-06-04T07:54:55;17.20;83.40
53254;DHT22;39148;53.332;6.922;2023-06-04T07:57:22;17.20;85.00
53254;DHT22;39148;53.332;6.922;2023-06-04T07:59:48;17.10;85.10
53254;DHT22;39148;53.332;6.922;2023-06-04T08:02:14;17.20;84.80
53254;DHT22;39148;53.332;6.922;2023-06-04T08:04:40;17.10;85.10
53254;DHT22;39148;53.332;6.922;2023-06-04T08:07:06;17.20;84.80
53254;DHT22;39148;53.332;6.922;2023-06-04T08:09:32;17.10;83.10
53254;DHT22;39148;53.332;6.922;2023-06-04T08:11:57;17.30;84.80
53254;DHT22;39148;53.332;6.922;2023-06-04T08:14:23;17.40;84.80
53254;DHT22;39148;53.332;6.922;2023-06-04T08:16:52;17.20;81.80
53254;DHT22;39148;53.332;6.922;2023-06-04T08:19:18;17.20;84.50
53254;DHT22;39148;53.332;6.922;2023-06-04T08:21:44;17.40;84.60
53254;DHT22;39148;53.332;6.922;2023-06-04T08:24:11;17.30;84.60
53254;DHT22;39148;53.332;6.922;2023-06-04T08:26:37;17.20;84.50
53254;DHT22;39148;53.332;6.922;2023-06-04T08:29:03;17.30;84.50
53254;DHT22;39148;53.332;6.922;2023-06-04T08:31:30;17.50;84.60
53254;DHT22;39148;53.332;6.922;2023-06-04T08:33:55;17.50;84.60
53254;DHT22;39148;53.332;6.922;2023-06-04T08:38:47;17.70;84.60
53254;DHT22;39148;53.332;6.922;2023-06-04T08:41:31;17.50;84.50
53254;DHT22;39148;53.332;6.922;2023-06-04T08:43:59;17.50;84.50
53254;DHT22;39148;53.332;6.922;2023-06-04T08:46:28;17.60;82.80
53254;DHT22;39148;53.332;6.922;2023-06-04T08:48:56;17.40;84.30
53254;DHT22;39148;53.332;6.922;2023-06-04T08:51:25;17.60;82.80
53254;DHT22;39148;53.332;6.922;2023-06-04T08:53:50;17.70;84.40
53254;DHT22;39148;53.332;6.922;2023-06-04T08:56:20;17.70;84.70
53254;DHT22;39148;53.332;6.922;2023-06-04T08:58:48;17.70;84.70
53254;DHT22;39148;53.332;6.922;2023-06-04T09:01:14;17.80;84.40
53254;DHT22;39148;53.332;6.922;2023-06-04T09:03:41;17.80;84.40
53254;DHT22;39148;53.332;6.922;2023-06-04T09:06:07;17.70;84.20
53254;DHT22;39148;53.332;6.922;2023-06-04T09:08:35;17.80;82.70
53254;DHT22;39148;53.332;6.922;2023-06-04T09:11:05;17.90;82.70
53254;DHT22;39148;53.332;6.922;2023-06-04T09:13:33;17.90;82.80
53254;DHT22;39148;53.332;6.922;2023-06-04T09:16:04;17.90;82.70
53254;DHT22;39148;53.332;6.922;2023-06-04T09:18:30;17.90;82.70
53254;DHT22;39148;53.332;6.922;2023-06-04T09:21:08;17.80;84.20
53254;DHT22;39148;53.332;6.922;2023-06-04T09:23:44;18.00;84.30
53254;DHT22;39148;53.332;6.922;2023-06-04T09:26:11;18.00;84.30
53254;DHT22;39148;53.332;6.922;2023-06-04T09:28:44;18.00;82.50
53254;DHT22;39148;53.332;6.922;2023-06-04T09:31:16;18.10;82.80
53254;DHT22;39148;53.332;6.922;2023-06-04T09:33:47;18.10;82.60
53254;DHT22;39148;53.332;6.922;2023-06-04T09:36:13;18.10;81.30
53254;DHT22;39148;53.332;6.922;2023-06-04T09:38:39;18.10;82.40
53254;DHT22;39148;53.332;6.922;2023-06-04T09:41:11;18.30;84.40
53254;DHT22;39148;53.332;6.922;2023-06-04T09:43:37;18.10;84.00
53254;DHT22;39148;53.332;6.922;2023-06-04T09:46:13;18.20;82.30
53254;DHT22;39148;53.332;6.922;2023-06-04T09:48:40;18.20;82.60
53254;DHT22;39148;53.332;6.922;2023-06-04T09:51:14;18.20;82.30
53254;DHT22;39148;53.332;6.922;2023-06-04T09:53:55;18.20;81.00
53254;DHT22;39148;53.332;6.922;2023-06-04T09:56:21;18.30;82.40
53254;DHT22;39148;53.332;6.922;2023-06-04T09:58:49;18.30;82.20
53254;DHT22;39148;53.332;6.922;2023-06-04T10:01:15;18.30;82.20
53254;DHT22;39148;53.332;6.922;2023-06-04T10:03:46;18.30;82.10
53254;DHT22;39148;53.332;6.922;2023-06-04T10:06:14;18.30;82.20
53254;DHT22;39148;53.332;6.922;2023-06-04T10:08:42;18.40;82.30
53254;DHT22;39148;53.332;6.922;2023-06-04T10:11:09;18.40;82.10
53254;DHT22;39148;53.332;6.922;2023-06-04T10:13:44;18.40;82.10
53254;DHT22;39148;53.332;6.922;2023-06-04T10:16:11;18.40;82.10
53254;DHT22;39148;53.332;6.922;2023-06-04T10:18:37;18.40;81.90
53254;DHT22;39148;53.332;6.922;2023-06-04T10:21:04;18.50;82.00
53254;DHT22;39148;53.332;6.922;2023-06-04T10:23:30;18.50;81.90
53254;DHT22;39148;53.332;6.922;2023-06-04T10:25:56;18.40;83.90
53254;DHT22;39148;53.332;6.922;2023-06-04T10:28:23;18.60;81.90
53254;DHT22;39148;53.332;6.922;2023-06-04T10:30:49;18.60;81.90
53254;DHT22;39148;53.332;6.922;2023-06-04T10:33:20;18.50;81.60
53254;DHT22;39148;53.332;6.922;2023-06-04T10:35:50;18.50;83.80
53254;DHT22;39148;53.332;6.922;2023-06-04T10:38:16;18.70;81.80
53254;DHT22;39148;53.332;6.922;2023-06-04T10:40:47;18.70;81.20
53254;DHT22;39148;53.332;6.922;2023-06-04T10:43:14;18.60;81.60
53254;DHT22;39148;53.332;6.922;2023-06-04T10:45:41;18.70;81.80
53254;DHT22;39148;53.332;6.922;2023-06-04T10:48:09;18.80;81.70
53254;DHT22;39148;53.332;6.922;2023-06-04T10:50:48;18.80;81.70
53254;DHT22;39148;53.332;6.922;2023-06-04T10:53:14;18.60;83.30
53254;DHT22;39148;53.332;6.922;2023-06-04T10:55:49;18.70;81.40
53254;DHT22;39148;53.332;6.922;2023-06-04T10:58:15;18.80;81.70
53254;DHT22;39148;53.332;6.922;2023-06-04T11:00:43;18.80;81.40
53254;DHT22;39148;53.332;6.922;2023-06-04T11:03:12;18.90;81.60
53254;DHT22;39148;53.332;6.922;2023-06-04T11:05:46;18.80;81.50
53254;DHT22;39148;53.332;6.922;2023-06-04T11:08:12;18.90;81.70
53254;DHT22;39148;53.332;6.922;2023-06-04T11:10:43;18.90;81.30
53254;DHT22;39148;53.332;6.922;2023-06-04T11:13:10;18.90;81.40
53254;DHT22;39148;53.332;6.922;2023-06-04T11:18:08;18.90;81.30
53254;DHT22;39148;53.332;6.922;2023-06-04T11:20:34;18.90;81.10
53254;DHT22;39148;53.332;6.922;2023-06-04T11:23:00;19.00;81.20
53254;DHT22;39148;53.332;6.922;2023-06-04T11:25:28;19.00;81.20
53254;DHT22;39148;53.332;6.922;2023-06-04T11:27:56;19.00;81.20
53254;DHT22;39148;53.332;6.922;2023-06-04T11:30:23;19.10;81.30
53254;DHT22;39148;53.332;6.922;2023-06-04T11:32:49;19.00;81.20
53254;DHT22;39148;53.332;6.922;2023-06-04T11:35:15;19.10;81.10
53254;DHT22;39148;53.332;6.922;2023-06-04T11:37:41;19.10;81.10
53254;DHT22;39148;53.332;6.922;2023-06-04T11:40:19;19.10;81.10
53254;DHT22;39148;53.332;6.922;2023-06-04T11:42:49;19.00;81.00
53254;DHT22;39148;53.332;6.922;2023-06-04T11:45:16;19.10;81.10
53254;DHT22;39148;53.332;6.922;2023-06-04T11:47:48;19.20;81.00
53254;DHT22;39148;53.332;6.922;2023-06-04T11:50:14;19.30;81.20
53254;DHT22;39148;53.332;6.922;2023-06-04T11:52:40;19.20;80.90
53254;DHT22;39148;53.332;6.922;2023-06-04T11:55:11;19.20;80.90
53254;DHT22;39148;53.332;6.922;2023-06-04T11:57:38;19.30;81.10
53254;DHT22;39148;53.332;6.922;2023-06-04T12:00:07;19.20;80.80
53254;DHT22;39148;53.332;6.922;2023-06-04T12:02:50;19.30;80.40
53254;DHT22;39148;53.332;6.922;2023-06-04T12:05:18;19.30;81.00
53254;DHT22;39148;53.332;6.922;2023-06-04T12:07:49;19.40;80.70
53254;DHT22;39148;53.332;6.922;2023-06-04T12:10:19;19.40;80.90
53254;DHT22;39148;53.332;6.922;2023-06-04T12:12:45;19.30;80.90
53254;DHT22;39148;53.332;6.922;2023-06-04T12:15:11;19.40;80.60
53254;DHT22;39148;53.332;6.922;2023-06-04T12:17:37;19.50;80.80
53254;DHT22;39148;53.332;6.922;2023-06-04T12:20:04;19.50;80.70
53254;DHT22;39148;53.332;6.922;2023-06-04T12:22:31;19.50;80.20
53254;DHT22;39148;53.332;6.922;2023-06-04T12:24:57;19.50;80.50
53254;DHT22;39148;53.332;6.922;2023-06-04T12:27:25;19.50;80.60
53254;DHT22;39148;53.332;6.922;2023-06-04T12:29:59;19.50;80.70
53254;DHT22;39148;53.332;6.922;2023-06-04T12:32:25;19.50;79.40
53254;DHT22;39148;53.332;6.922;2023-06-04T12:34:51;19.60;80.60
53254;DHT22;39148;53.332;6.922;2023-06-04T12:37:17;19.60;80.60
53254;DHT22;39148;53.332;6.922;2023-06-04T12:39:42;19.60;80.50
53254;DHT22;39148;53.332;6.922;2023-06-04T12:42:08;19.60;80.40
53254;DHT22;39148;53.332;6.922;2023-06-04T12:44:41;19.70;80.50
53254;DHT22;39148;53.332;6.922;2023-06-04T12:47:07;19.60;80.60
53254;DHT22;39148;53.332;6.922;2023-06-04T12:49:33;19.70;80.40
53254;DHT22;39148;53.332;6.922;2023-06-04T12:52:00;19.60;80.40
53254;DHT22;39148;53.332;6.922;2023-06-04T12:54:25;19.90;80.40
53254;DHT22;39148;53.332;6.922;2023-06-04T12:56:53;19.70;80.40
53254;DHT22;39148;53.332;6.922;2023-06-04T12:59:19;19.70;80.90
53254;DHT22;39148;53.332;6.922;2023-06-04T13:01:44;19.80;80.50
53254;DHT22;39148;53.332;6.922;2023-06-04T13:04:10;19.80;80.40
53254;DHT22;39148;53.332;6.922;2023-06-04T13:06:36;19.90;80.50
53254;DHT22;39148;53.332;6.922;2023-06-04T13:09:03;19.80;80.50
53254;DHT22;39148;53.332;6.922;2023-06-04T13:11:37;19.90;80.60
53254;DHT22;39148;53.332;6.922;2023-06-04T13:14:03;19.90;79.30
53254;DHT22;39148;53.332;6.922;2023-06-04T13:16:29;19.90;80.50
53254;DHT22;39148;53.332;6.922;2023-06-04T13:18:55;20.00;80.50
53254;DHT22;39148;53.332;6.922;2023-06-04T13:21:21;19.80;80.40
53254;DHT22;39148;53.332;6.922;2023-06-04T13:23:46;19.90;80.40
53254;DHT22;39148;53.332;6.922;2023-06-04T13:26:12;20.00;80.50
53254;DHT22;39148;53.332;6.922;2023-06-04T13:28:38;20.00;80.40
53254;DHT22;39148;53.332;6.922;2023-06-04T13:31:04;20.10;80.60
53254;DHT22;39148;53.332;6.922;2023-06-04T13:33:30;20.10;80.40
53254;DHT22;39148;53.332;6.922;2023-06-04T13:35:56;20.00;80.40
53254;DHT22;39148;53.332;6.922;2023-06-04T13:38:21;20.10;80.30
53254;DHT22;39148;53.332;6.922;2023-06-04T13:40:47;20.10;80.40
53254;DHT22;39148;53.332;6.922;2023-06-04T13:43:13;20.10;80.40
53254;DHT22;39148;53.332;6.922;2023-06-04T13:45:39;20.10;80.40
53254;DHT22;39148;53.332;6.922;2023-06-04T13:48:05;20.10;80.50
53254;DHT22;39148;53.332;6.922;2023-06-04T13:50:33;20.20;80.30
53254;DHT22;39148;53.332;6.922;2023-06-04T13:52:59;20.10;80.10
53254;DHT22;39148;53.332;6.922;2023-06-04T13:55:24;20.30;80.10
53254;DHT22;39148;53.332;6.922;2023-06-04T13:57:50;20.20;80.10
53254;DHT22;39148;53.332;6.922;2023-06-04T14:00:16;20.20;80.00
53254;DHT22;39148;53.332;6.922;2023-06-04T14:02:42;20.20;80.10
53254;DHT22;39148;53.332;6.922;2023-06-04T14:05:08;20.30;80.10
53254;DHT22;39148;53.332;6.922;2023-06-04T14:07:33;20.30;79.70
53254;DHT22;39148;53.332;6.922;2023-06-04T14:09:59;20.30;80.00
53254;DHT22;39148;53.332;6.922;2023-06-04T14:12:26;20.20;79.90
53254;DHT22;39148;53.332;6.922;2023-06-04T14:14:51;20.30;80.00
53254;DHT22;39148;53.332;6.922;2023-06-04T14:17:17;20.40;80.00
53254;DHT22;39148;53.332;6.922;2023-06-04T14:19:43;20.40;79.90
53254;DHT22;39148;53.332;6.922;2023-06-04T14:22:10;20.40;79.90
53254;DHT22;39148;53.332;6.922;2023-06-04T14:24:37;20.30;79.90
53254;DHT22;39148;53.332;6.922;2023-06-04T14:27:03;20.40;79.90
53254;DHT22;39148;53.332;6.922;2023-06-04T14:29:29;20.50;79.50
53254;DHT22;39148;53.332;6.922;2023-06-04T14:31:55;20.40;79.50
53254;DHT22;39148;53.332;6.922;2023-06-04T14:34:21;20.40;79.40
53254;DHT22;39148;53.332;6.922;2023-06-04T14:36:46;20.50;79.50
53254;DHT22;39148;53.332;6.922;2023-06-04T14:39:12;20.50;79.50
53254;DHT22;39148;53.332;6.922;2023-06-04T14:41:38;20.50;79.40
53254;DHT22;39148;53.332;6.922;2023-06-04T14:44:04;20.60;79.50
53254;DHT22;39148;53.332;6.922;2023-06-04T14:46:30;20.60;79.30
53254;DHT22;39148;53.332;6.922;2023-06-04T14:48:56;20.60;79.20
53254;DHT22;39148;53.332;6.922;2023-06-04T14:51:21;20.70;79.30
53254;DHT22;39148;53.332;6.922;2023-06-04T14:53:48;20.60;79.20
53254;DHT22;39148;53.332;6.922;2023-06-04T14:56:14;20.70;79.20
53254;DHT22;39148;53.332;6.922;2023-06-04T14:58:39;20.70;79.20
53254;DHT22;39148;53.332;6.922;2023-06-04T15:01:05;20.70;79.10
53254;DHT22;39148;53.332;6.922;2023-06-04T15:03:32;20.70;79.20
53254;DHT22;39148;53.332;6.922;2023-06-04T15:05:58;20.70;79.00
53254;DHT22;39148;53.332;6.922;2023-06-04T15:08:24;21.00;79.30
53254;DHT22;39148;53.332;6.922;2023-06-04T15:10:50;20.80;79.10
53254;DHT22;39148;53.332;6.922;2023-06-04T15:13:15;20.80;79.10
53254;DHT22;39148;53.332;6.922;2023-06-04T15:15:41;20.80;79.20
53254;DHT22;39148;53.332;6.922;2023-06-04T15:18:07;21.00;79.10
53254;DHT22;39148;53.332;6.922;2023-06-04T15:20:33;20.70;78.90
53254;DHT22;39148;53.332;6.922;2023-06-04T15:22:58;20.80;78.90
53254;DHT22;39148;53.332;6.922;2023-06-04T15:25:24;20.80;79.00
53254;DHT22;39148;53.332;6.922;2023-06-04T15:27:50;20.90;79.00
53254;DHT22;39148;53.332;6.922;2023-06-04T15:30:16;20.90;79.00
53254;DHT22;39148;53.332;6.922;2023-06-04T15:32:43;21.00;79.10
53254;DHT22;39148;53.332;6.922;2023-06-04T15:35:10;21.00;79.00
53254;DHT22;39148;53.332;6.922;2023-06-04T15:37:36;21.00;78.90
53254;DHT22;39148;53.332;6.922;2023-06-04T15:40:02;21.00;78.80
53254;DHT22;39148;53.332;6.922;2023-06-04T15:42:28;20.90;78.60
53254;DHT22;39148;53.332;6.922;2023-06-04T15:44:54;21.00;78.70
53254;DHT22;39148;53.332;6.922;2023-06-04T15:47:20;21.00;78.70
53254;DHT22;39148;53.332;6.922;2023-06-04T15:49:45;21.00;78.80
53254;DHT22;39148;53.332;6.922;2023-06-04T15:52:11;21.00;78.60
53254;DHT22;39148;53.332;6.922;2023-06-04T15:54:37;21.10;78.60
53254;DHT22;39148;53.332;6.922;2023-06-04T15:57:03;21.00;78.50
53254;DHT22;39148;53.332;6.922;2023-06-04T15:59:29;21.00;78.20
53254;DHT22;39148;53.332;6.922;2023-06-04T16:01:54;21.00;78.60
53254;DHT22;39148;53.332;6.922;2023-06-04T16:04:20;21.10;78.70
53254;DHT22;39148;53.332;6.922;2023-06-04T16:06:45;21.00;78.40
53254;DHT22;39148;53.332;6.922;2023-06-04T16:09:11;21.20;78.50
53254;DHT22;39148;53.332;6.922;2023-06-04T16:11:37;21.10;78.50
53254;DHT22;39148;53.332;6.922;2023-06-04T16:14:03;21.10;78.50